sensor_id;sensor_type;location;lat;lon;timestamp;P1;durP1;ratioP1;P2;durP2;ratioP2
2035;SDS011;23642;42.658;23.350;2024-03-06T00:05:26;122.47;;;113.77;;
2035;SDS011;23642;42.658;23.350;2024-03-06T00:08:22;125.50;;;116.40;;
2035;SDS011;23642;42.658;23.350;2024-03-06T00:11:11;123.90;;;115.03;;
2035;SDS011;23642;42.658;23.350;2024-03-06T00:14:20;124.13;;;115.57;;
2035;SDS011;23642;42.658;23.350;2024-03-06T00:17:18;123.70;;;114.30;;
2035;SDS011;23642;42.658;23.350;2024-03-06T00:20:10;125.30;;;116.00;;
2035;SDS011;23642;42.658;23.350;2024-03-06T00:24:04;123.57;;;114.77;;
2035;SDS011;23642;42.658;23.350;2024-03-06T00:26:54;123.23;;;114.73;;
2035;SDS011;23642;42.658;23.350;2024-03-06T00:38:06;121.13;;;112.10;;
2035;SDS011;23642;42.658;23.350;2024-03-06T01:00:32;123.03;;;113.73;;
2035;SDS011;23642;42.658;23.350;2024-03-06T01:03:29;123.20;;;113.47;;
2035;SDS011;23642;42.658;23.350;2024-03-06T01:06:42;121.20;;;112.17;;
2035;SDS011;23642;42.658;23.350;2024-03-06T01:12:39;118.37;;;109.90;;
2035;SDS011;23642;42.658;23.350;2024-03-06T01:23:13;120.57;;;111.73;;
2035;SDS011;23642;42.658;23.350;2024-03-06T01:26:00;120.20;;;111.33;;
2035;SDS011;23642;42.658;23.350;2024-03-06T01:32:55;123.10;;;114.30;;
2035;SDS011;23642;42.658;23.350;2024-03-06T01:35:31;122.27;;;112.73;;
2035;SDS011;23642;42.658;23.350;2024-03-06T05:57:15;144.87;;;133.30;;
2035;SDS011;23642;42.658;23.350;2024-03-06T06:04:14;143.27;;;132.17;;
2035;SDS011;23642;42.658;23.350;2024-03-06T06:33:44;148.43;;;137.13;;
2035;SDS011;23642;42.658;23.350;2024-03-06T07:43:02;151.60;;;138.50;;
2035;SDS011;23642;42.658;23.350;2024-03-06T09:38:04;144.83;;;134.30;;
2035;SDS011;23642;42.658;23.350;2024-03-06T10:12:41;140.97;;;130.67;;
2035;SDS011;23642;42.658;23.350;2024-03-06T11:13:40;134.70;;;126.20;;
2035;SDS011;23642;42.658;23.350;2024-03-06T11:16:55;133.80;;;124.77;;
2035;SDS011;23642;42.658;23.350;2024-03-06T11:33:41;132.67;;;123.77;;
2035;SDS011;23642;42.658;23.350;2024-03-06T11:42:41;133.57;;;125.17;;
2035;SDS011;23642;42.658;23.350;2024-03-06T12:37:49;131.50;;;123.20;;
2035;SDS011;23642;42.658;23.350;2024-03-06T12:40:53;130.03;;;121.63;;
2035;SDS011;23642;42.658;23.350;2024-03-06T17:19:50;122.47;;;113.73;;
2035;SDS011;23642;42.658;23.350;2024-03-06T17:25:31;122.77;;;113.80;;
2035;SDS011;23642;42.658;23.350;2024-03-06T17:28:18;124.87;;;115.90;;
2035;SDS011;23642;42.658;23.350;2024-03-06T17:31:57;128.00;;;118.70;;
2035;SDS011;23642;42.658;23.350;2024-03-06T17:34:28;127.40;;;118.63;;
2035;SDS011;23642;42.658;23.350;2024-03-06T17:37:21;125.83;;;116.83;;
2035;SDS011;23642;42.658;23.350;2024-03-06T17:40:43;132.20;;;122.70;;
2035;SDS011;23642;42.658;23.350;2024-03-06T18:03:27;130.10;;;121.30;;
2035;SDS011;23642;42.658;23.350;2024-03-06T18:06:18;130.23;;;121.47;;
2035;SDS011;23642;42.658;23.350;2024-03-06T18:08:53;130.63;;;121.93;;
2035;SDS011;23642;42.658;23.350;2024-03-06T18:14:43;128.60;;;119.70;;
2035;SDS011;23642;42.658;23.350;2024-03-06T18:24:51;130.37;;;121.07;;
2035;SDS011;23642;42.658;23.350;2024-03-06T18:27:29;127.40;;;118.70;;
2035;SDS011;23642;42.658;23.350;2024-03-06T18:30:37;128.63;;;119.87;;
2035;SDS011;23642;42.658;23.350;2024-03-06T18:33:32;128.00;;;118.90;;
2035;SDS011;23642;42.658;23.350;2024-03-06T18:36:11;127.50;;;118.40;;
2035;SDS011;23642;42.658;23.350;2024-03-06T18:38:52;127.27;;;118.27;;
2035;SDS011;23642;42.658;23.350;2024-03-06T18:48:02;121.90;;;113.70;;
2035;SDS011;23642;42.658;23.350;2024-03-06T18:51:04;125.53;;;117.03;;
2035;SDS011;23642;42.658;23.350;2024-03-06T18:55:24;127.27;;;119.07;;
2035;SDS011;23642;42.658;23.350;2024-03-06T18:57:20;125.97;;;117.67;;
2035;SDS011;23642;42.658;23.350;2024-03-06T19:00:04;126.03;;;117.50;;
2035;SDS011;23642;42.658;23.350;2024-03-06T19:03:15;126.77;;;118.07;;
2035;SDS011;23642;42.658;23.350;2024-03-06T19:06:06;124.77;;;116.20;;
2035;SDS011;23642;42.658;23.350;2024-03-06T19:09:01;123.87;;;115.10;;
2035;SDS011;23642;42.658;23.350;2024-03-06T19:27:39;122.33;;;114.17;;
2035;SDS011;23642;42.658;23.350;2024-03-06T19:30:59;121.63;;;113.67;;
2035;SDS011;23642;42.658;23.350;2024-03-06T19:34:05;121.50;;;113.60;;
2035;SDS011;23642;42.658;23.350;2024-03-06T19:57:36;122.60;;;114.17;;
2035;SDS011;23642;42.658;23.350;2024-03-06T20:00:16;122.93;;;114.60;;
2035;SDS011;23642;42.658;23.350;2024-03-06T20:03:17;122.47;;;114.23;;
2035;SDS011;23642;42.658;23.350;2024-03-06T20:06:19;120.70;;;112.80;;
2035;SDS011;23642;42.658;23.350;2024-03-06T20:25:30;123.03;;;114.40;;
2035;SDS011;23642;42.658;23.350;2024-03-06T20:28:37;121.60;;;113.40;;
2035;SDS011;23642;42.658;23.350;2024-03-06T20:31:20;121.73;;;113.33;;
2035;SDS011;23642;42.658;23.350;2024-03-06T20:34:07;122.63;;;114.33;;
2035;SDS011;23642;42.658;23.350;2024-03-06T20:37:04;121.10;;;113.03;;
2035;SDS011;23642;42.658;23.350;2024-03-06T20:43:22;115.93;;;108.33;;
2035;SDS011;23642;42.658;23.350;2024-03-06T20:46:37;119.57;;;111.63;;
2035;SDS011;23642;42.658;23.350;2024-03-06T20:49:28;116.93;;;108.87;;
2035;SDS011;23642;42.658;23.350;2024-03-06T20:52:14;117.20;;;108.97;;
2035;SDS011;23642;42.658;23.350;2024-03-06T20:55:21;118.03;;;110.00;;
2035;SDS011;23642;42.658;23.350;2024-03-06T20:57:48;117.70;;;109.00;;
2035;SDS011;23642;42.658;23.350;2024-03-06T21:07:41;118.53;;;110.73;;
2035;SDS011;23642;42.658;23.350;2024-03-06T21:10:35;119.50;;;111.50;;
2035;SDS011;23642;42.658;23.350;2024-03-06T21:13:26;121.30;;;112.77;;
2035;SDS011;23642;42.658;23.350;2024-03-06T21:16:20;121.00;;;112.50;;
2035;SDS011;23642;42.658;23.350;2024-03-06T21:19:24;121.27;;;113.00;;
2035;SDS011;23642;42.658;23.350;2024-03-06T21:22:20;121.37;;;112.97;;
2035;SDS011;23642;42.658;23.350;2024-03-06T21:34:55;125.77;;;116.90;;
2035;SDS011;23642;42.658;23.350;2024-03-06T21:37:50;125.63;;;116.60;;
2035;SDS011;23642;42.658;23.350;2024-03-06T21:41:15;126.87;;;117.97;;
2035;SDS011;23642;42.658;23.350;2024-03-06T21:43:57;126.30;;;117.20;;
2035;SDS011;23642;42.658;23.350;2024-03-06T21:50:35;122.53;;;113.83;;
2035;SDS011;23642;42.658;23.350;2024-03-06T21:55:35;125.90;;;117.23;;
2035;SDS011;23642;42.658;23.350;2024-03-06T21:56:45;125.80;;;117.27;;
2035;SDS011;23642;42.658;23.350;2024-03-06T21:59:22;124.47;;;115.80;;
2035;SDS011;23642;42.658;23.350;2024-03-06T22:02:12;129.70;;;120.90;;
2035;SDS011;23642;42.658;23.350;2024-03-06T22:05:09;128.73;;;119.63;;
2035;SDS011;23642;42.658;23.350;2024-03-06T22:07:43;129.73;;;120.63;;
2035;SDS011;23642;42.658;23.350;2024-03-06T22:10:37;131.60;;;122.50;;
2035;SDS011;23642;42.658;23.350;2024-03-06T22:14:00;130.70;;;121.57;;
2035;SDS011;23642;42.658;23.350;2024-03-06T22:16:43;127.13;;;118.27;;
2035;SDS011;23642;42.658;23.350;2024-03-06T22:19:36;129.57;;;120.43;;
2035;SDS011;23642;42.658;23.350;2024-03-06T22:22:23;130.47;;;121.27;;
2035;SDS011;23642;42.658;23.350;2024-03-06T22:25:11;126.13;;;117.33;;
2035;SDS011;23642;42.658;23.350;2024-03-06T22:27:53;130.20;;;120.97;;
2035;SDS011;23642;42.658;23.350;2024-03-06T22:30:57;128.90;;;119.70;;
2035;SDS011;23642;42.658;23.350;2024-03-06T22:33:41;131.57;;;122.13;;
2035;SDS011;23642;42.658;23.350;2024-03-06T22:36:43;131.97;;;122.67;;
2035;SDS011;23642;42.658;23.350;2024-03-06T22:42:54;134.37;;;124.77;;
2035;SDS011;23642;42.658;23.350;2024-03-06T22:45:38;128.57;;;119.33;;
2035;SDS011;23642;42.658;23.350;2024-03-06T22:48:45;130.23;;;120.97;;
2035;SDS011;23642;42.658;23.350;2024-03-06T22:51:49;130.43;;;121.33;;
2035;SDS011;23642;42.658;23.350;2024-03-06T22:55:12;128.33;;;119.30;;
2035;SDS011;23642;42.658;23.350;2024-03-06T22:57:47;131.30;;;122.00;;
2035;SDS011;23642;42.658;23.350;2024-03-06T23:00:26;133.63;;;124.03;;
2035;SDS011;23642;42.658;23.350;2024-03-06T23:03:25;127.70;;;118.90;;
2035;SDS011;23642;42.658;23.350;2024-03-06T23:06:05;129.70;;;120.40;;
2035;SDS011;23642;42.658;23.350;2024-03-06T23:10:35;123.17;;;114.40;;
2035;SDS011;23642;42.658;23.350;2024-03-06T23:12:15;127.43;;;118.20;;
2035;SDS011;23642;42.658;23.350;2024-03-06T23:15:44;124.53;;;115.73;;
2035;SDS011;23642;42.658;23.350;2024-03-06T23:19:09;125.93;;;116.93;;
2035;SDS011;23642;42.658;23.350;2024-03-06T23:21:39;125.03;;;116.17;;
2035;SDS011;23642;42.658;23.350;2024-03-06T23:24:25;124.00;;;115.33;;
2035;SDS011;23642;42.658;23.350;2024-03-06T23:33:50;124.43;;;115.53;;
2035;SDS011;23642;42.658;23.350;2024-03-06T23:59:14;124.23;;;115.13;;
